Time;durP1;ratioP1;P1;durP2;ratioP2;P2;SDS_P1;SDS_P2;PMS_P1;PMS_P2;Temp;Humidity;BMP_temperature;BMP_pressure;BME280_temperature;BME280_humidity;BME280_pressure;Samples;Min_cycle;Max_cycle;Signal;HPM_P1;HPM_P2
2022/05/14 00:00:18;;;;;;;4.67;4.47;;;12.70;99.90;;;;;;5054708;28;20175;-68
2022/05/14 00:02:44;;;;;;;4.77;4.57;;;12.60;99.90;;;;;;5052633;28;20205;-67
2022/05/14 00:05:10;;;;;;;4.80;4.60;;;12.60;99.90;;;;;;5052884;28;20167;-67
2022/05/14 00:07:37;;;;;;;4.77;4.57;;;12.50;99.90;;;;;;5054429;28;20178;-68
2022/05/14 00:10:04;;;;;;;5.57;5.37;;;12.50;99.90;;;;;;5054522;28;20675;-68
2022/05/14 00:15:14;;;;;;;6.87;6.10;;;12.30;99.90;;;;;;5053699;28;20213;-67
2022/05/14 00:17:39;;;;;;;4.90;4.70;;;12.30;99.90;;;;;;5052252;28;20226;-68
2022/05/14 00:20:06;;;;;;;6.33;6.03;;;12.20;99.90;;;;;;5053950;28;20221;-67
2022/05/14 00:22:31;;;;;;;5.17;4.97;;;12.20;99.90;;;;;;5053445;28;20198;-67
2022/05/14 00:24:57;;;;;;;4.80;4.60;;;12.10;99.90;;;;;;5053381;28;20640;-68
2022/05/14 00:27:23;;;;;;;5.43;5.13;;;12.00;99.90;;;;;;5052290;28;20183;-68
2022/05/14 00:29:48;;;;;;;4.63;4.43;;;12.00;99.90;;;;;;5053571;28;20181;-67
2022/05/14 00:32:14;;;;;;;6.97;6.47;;;11.90;99.90;;;;;;5053183;28;20206;-68
2022/05/14 00:34:39;;;;;;;5.13;4.93;;;11.90;99.90;;;;;;5052872;28;20167;-67
2022/05/14 00:37:05;;;;;;;5.33;5.03;;;11.80;99.90;;;;;;5053063;28;20199;-68
2022/05/14 00:39:31;;;;;;;4.97;4.77;;;11.80;99.90;;;;;;5053519;28;20167;-68
2022/05/14 00:41:56;;;;;;;4.90;4.70;;;11.70;99.90;;;;;;5052887;28;20202;-68
2022/05/14 00:44:22;;;;;;;4.60;4.40;;;11.70;99.90;;;;;;5052782;28;20171;-68
2022/05/14 00:46:59;;;;;;;5.13;4.93;;;11.60;99.90;;;;;;5052676;28;20183;-68
2022/05/14 00:49:26;;;;;;;5.00;4.80;;;11.60;99.90;;;;;;5053493;28;20179;-67
2022/05/14 00:51:52;;;;;;;4.90;4.70;;;11.60;99.90;;;;;;5052791;28;20280;-69
2022/05/14 00:54:23;;;;;;;4.80;4.60;;;11.50;99.90;;;;;;5051081;28;20228;-67
2022/05/14 00:56:53;;;;;;;5.00;4.80;;;11.40;99.90;;;;;;5051741;28;20203;-67
2022/05/14 00:59:21;;;;;;;5.27;5.07;;;11.50;99.90;;;;;;5073169;28;20202;-67
2022/05/14 01:01:48;;;;;;;4.83;4.63;;;11.40;99.90;;;;;;5073157;28;20192;-67
2022/05/14 01:04:16;;;;;;;9.00;6.63;;;11.50;99.90;;;;;;5073041;28;20162;-67
2022/05/14 01:06:50;;;;;;;4.90;4.70;;;11.50;99.90;;;;;;5053409;28;20266;-67
2022/05/14 01:09:15;;;;;;;5.00;4.80;;;11.50;99.90;;;;;;5053051;28;20250;-67
2022/05/14 01:11:41;;;;;;;4.70;4.50;;;11.50;99.90;;;;;;5052299;28;20302;-67
2022/05/14 01:14:07;;;;;;;4.87;4.67;;;11.50;99.90;;;;;;5052400;28;20174;-67
2022/05/14 01:16:34;;;;;;;5.10;4.90;;;11.50;99.90;;;;;;5050731;28;20279;-67
2022/05/14 01:19:00;;;;;;;4.97;4.77;;;11.50;99.90;;;;;;5052538;28;20190;-67
2022/05/14 01:22:13;;;;;;;5.03;4.83;;;11.50;99.90;;;;;;5052139;28;20629;-67
2022/05/14 01:27:52;;;;;;;4.67;4.47;;;11.60;99.90;;;;;;5051023;28;20233;-68
2022/05/14 01:30:18;;;;;;;5.30;5.07;;;11.50;99.90;;;;;;5052316;28;20178;-67
2022/05/14 01:32:47;;;;;;;4.87;4.67;;;11.60;99.90;;;;;;5051964;28;20225;-67
2022/05/14 01:35:17;;;;;;;6.80;6.47;;;11.50;99.90;;;;;;5051788;28;20179;-67
2022/05/14 01:37:43;;;;;;;5.30;5.10;;;11.40;99.90;;;;;;5052412;28;20203;-67
2022/05/14 01:40:09;;;;;;;5.20;5.00;;;11.40;99.90;;;;;;5051835;28;20202;-67
2022/05/14 01:42:35;;;;;;;4.93;4.73;;;11.50;99.90;;;;;;5051733;28;20621;-67
2022/05/14 01:45:00;;;;;;;4.87;4.67;;;11.50;99.90;;;;;;5051304;28;20265;-67
2022/05/14 01:47:26;;;;;;;4.93;4.73;;;11.40;99.90;;;;;;5052055;28;20246;-67
2022/05/14 01:49:51;;;;;;;5.00;4.80;;;11.40;99.90;;;;;;5051716;28;20177;-67
2022/05/14 01:52:17;;;;;;;4.90;4.70;;;11.40;99.90;;;;;;5052040;28;20256;-67
2022/05/14 01:54:43;;;;;;;4.87;4.67;;;11.50;99.90;;;;;;5051067;28;20224;-67
2022/05/14 01:57:08;;;;;;;4.80;4.60;;;11.50;99.90;;;;;;5050763;28;20279;-67
2022/05/14 01:59:34;;;;;;;4.90;4.70;;;11.50;99.90;;;;;;5051643;28;20175;-67
2022/05/14 02:02:00;;;;;;;5.53;5.33;;;11.50;99.90;;;;;;5051501;28;20230;-67
2022/05/14 02:04:26;;;;;;;4.90;4.70;;;11.50;99.90;;;;;;5051666;28;20193;-67
2022/05/14 02:06:52;;;;;;;5.33;5.03;;;11.40;99.90;;;;;;5051150;28;20186;-67
2022/05/14 02:09:19;;;;;;;4.70;4.50;;;11.40;99.90;;;;;;5051457;28;20179;-67
2022/05/14 02:11:45;;;;;;;8.23;4.97;;;11.40;99.90;;;;;;5051557;28;20656;-68
2022/05/14 02:14:11;;;;;;;4.97;4.77;;;11.40;99.90;;;;;;5050332;28;20175;-67
2022/05/14 02:16:37;;;;;;;4.70;4.50;;;11.40;99.90;;;;;;5050940;28;20209;-67
2022/05/14 02:19:04;;;;;;;4.70;4.50;;;11.30;99.90;;;;;;5051312;28;20535;-67
2022/05/14 02:21:30;;;;;;;4.90;4.70;;;11.30;99.90;;;;;;5050370;28;20197;-68
2022/05/14 02:23:56;;;;;;;5.00;4.80;;;11.30;99.90;;;;;;5049904;28;20272;-68
2022/05/14 02:26:22;;;;;;;5.17;4.97;;;11.30;99.90;;;;;;5051048;28;20218;-67
2022/05/14 02:28:48;;;;;;;5.50;5.10;;;11.30;99.90;;;;;;5049953;28;20598;-67
2022/05/14 02:31:14;;;;;;;4.80;4.60;;;11.20;99.90;;;;;;5050065;28;20303;-67
2022/05/14 02:33:39;;;;;;;5.37;5.17;;;11.20;99.90;;;;;;5049963;28;20261;-67
2022/05/14 02:36:10;;;;;;;5.10;4.90;;;11.20;99.90;;;;;;5049457;28;20655;-68
2022/05/14 02:38:36;;;;;;;4.90;4.70;;;11.10;99.90;;;;;;5051059;28;20178;-67
2022/05/14 02:41:04;;;;;;;5.23;5.03;;;11.10;99.90;;;;;;5051249;28;20167;-67
2022/05/14 02:43:32;;;;;;;5.37;5.17;;;11.00;99.90;;;;;;5049749;28;20206;-67
2022/05/14 02:45:58;;;;;;;5.00;4.80;;;11.00;99.90;;;;;;5050662;28;20240;-67
2022/05/14 02:48:24;;;;;;;5.07;4.87;;;10.90;99.90;;;;;;5051010;28;20167;-67
2022/05/14 02:50:49;;;;;;;5.10;4.90;;;10.90;99.90;;;;;;5050757;28;20193;-67
2022/05/14 02:53:15;;;;;;;5.10;4.90;;;10.80;99.90;;;;;;5051054;28;20190;-68
2022/05/14 02:55:41;;;;;;;6.03;5.73;;;10.80;99.90;;;;;;5030788;28;20171;-68
2022/05/14 02:58:06;;;;;;;5.50;5.30;;;10.80;99.90;;;;;;5031005;28;20256;-67
2022/05/14 03:00:32;;;;;;;5.10;4.90;;;10.80;99.90;;;;;;5049540;28;20559;-67
2022/05/14 03:02:57;;;;;;;4.70;4.50;;;10.80;99.90;;;;;;5050424;28;20680;-68
2022/05/14 03:05:24;;;;;;;4.40;4.20;;;10.80;99.90;;;;;;5049535;28;20637;-68
2022/05/14 03:07:49;;;;;;;4.83;4.63;;;10.80;99.90;;;;;;5051806;28;20540;-68
2022/05/14 03:10:16;;;;;;;4.63;4.43;;;10.70;99.90;;;;;;5055073;28;20170;-68
2022/05/14 03:12:41;;;;;;;5.50;5.30;;;10.70;99.90;;;;;;5054266;28;20664;-68
2022/05/14 03:15:09;;;;;;;5.30;5.07;;;10.70;99.90;;;;;;5054419;28;20182;-68
2022/05/14 03:17:35;;;;;;;5.60;5.30;;;10.70;99.90;;;;;;5054444;28;20217;-67
2022/05/14 03:20:06;;;;;;;4.80;4.60;;;10.70;99.90;;;;;;5054636;28;20241;-68
2022/05/14 03:22:32;;;;;;;5.10;4.90;;;10.60;99.90;;;;;;5054609;28;20595;-68
2022/05/14 03:24:58;;;;;;;5.37;5.17;;;10.60;99.90;;;;;;5054328;28;20197;-67
2022/05/14 03:27:24;;;;;;;5.70;5.50;;;10.60;99.90;;;;;;5054464;28;20170;-68
2022/05/14 03:29:50;;;;;;;5.00;4.80;;;10.60;99.90;;;;;;5054638;28;20179;-68
2022/05/14 03:32:15;;;;;;;4.90;4.70;;;10.50;99.90;;;;;;5054351;28;20198;-68
2022/05/14 03:34:41;;;;;;;5.53;5.23;;;10.40;99.90;;;;;;5052981;28;20171;-68
2022/05/14 03:37:06;;;;;;;5.20;4.80;;;10.40;99.90;;;;;;5054493;28;20234;-68
2022/05/14 03:39:32;;;;;;;5.23;5.03;;;10.30;99.90;;;;;;5054338;28;20253;-67
2022/05/14 03:41:58;;;;;;;5.20;5.00;;;10.20;99.90;;;;;;5053587;28;20301;-66
2022/05/14 03:44:23;;;;;;;5.77;5.50;;;10.20;99.90;;;;;;5054365;28;20208;-67
2022/05/14 03:46:49;;;;;;;5.47;5.27;;;10.20;99.90;;;;;;5053859;28;20171;-67
2022/05/14 03:49:14;;;;;;;5.50;5.30;;;10.10;99.90;;;;;;5054044;28;20193;-67
2022/05/14 03:51:40;;;;;;;5.50;5.30;;;10.10;99.90;;;;;;5052822;28;20672;-66
2022/05/14 03:54:06;;;;;;;5.20;5.00;;;10.10;99.90;;;;;;5053803;28;20190;-67
2022/05/14 03:56:32;;;;;;;6.50;6.20;;;10.10;99.90;;;;;;5053614;28;20274;-67
2022/05/14 03:58:58;;;;;;;5.60;5.40;;;10.10;99.90;;;;;;5053689;28;20278;-67
2022/05/14 04:01:24;;;;;;;5.63;5.43;;;10.00;99.90;;;;;;5053896;28;20229;-67
2022/05/14 04:03:49;;;;;;;5.50;5.30;;;10.10;99.90;;;;;;5053886;28;20677;-67
2022/05/14 04:06:15;;;;;;;5.70;5.50;;;10.00;99.90;;;;;;5052600;28;20227;-67
2022/05/14 04:08:41;;;;;;;5.90;5.57;;;10.00;99.90;;;;;;5053967;28;20274;-66
2022/05/14 04:11:07;;;;;;;5.50;5.30;;;10.00;99.90;;;;;;5073184;28;20254;-68
2022/05/14 04:13:33;;;;;;;5.20;5.00;;;10.00;99.90;;;;;;5074958;28;20482;-67
2022/05/14 04:15:59;;;;;;;5.77;5.47;;;10.00;99.90;;;;;;5073556;28;20166;-69
2022/05/14 04:18:24;;;;;;;5.93;5.63;;;10.10;99.90;;;;;;5059618;28;20190;-66
2022/05/14 04:20:53;;;;;;;4.80;4.60;;;10.00;99.90;;;;;;5051763;28;20183;-67
2022/05/14 04:23:20;;;;;;;5.20;5.00;;;10.00;99.90;;;;;;5053525;28;20222;-67
2022/05/14 04:25:48;;;;;;;5.10;4.90;;;10.10;99.90;;;;;;5053366;28;20593;-66
2022/05/14 04:28:14;;;;;;;5.30;5.10;;;10.10;99.90;;;;;;5052440;28;20189;-66
2022/05/14 04:30:39;;;;;;;5.17;4.97;;;10.10;99.90;;;;;;5053631;28;20179;-67
2022/05/14 04:33:05;;;;;;;5.57;5.37;;;10.20;99.90;;;;;;5053573;28;20206;-66
2022/05/14 04:35:30;;;;;;;5.40;5.20;;;10.30;99.90;;;;;;5053239;28;20185;-66
2022/05/14 04:37:56;;;;;;;5.77;5.43;;;10.40;99.90;;;;;;5051934;28;20275;-67
2022/05/14 04:40:22;;;;;;;5.10;4.90;;;10.50;99.90;;;;;;5052257;28;20599;-67
2022/05/14 04:42:47;;;;;;;5.10;4.90;;;10.70;99.90;;;;;;5052897;28;20293;-67
2022/05/14 04:45:13;;;;;;;5.17;4.97;;;11.00;99.90;;;;;;5052899;28;20254;-66
2022/05/14 04:47:41;;;;;;;4.50;4.30;;;11.30;99.90;;;;;;5051174;28;20183;-66
2022/05/14 04:50:07;;;;;;;4.60;4.40;;;11.50;99.90;;;;;;5053159;28;20183;-67
2022/05/14 04:52:33;;;;;;;5.10;4.90;;;11.80;99.90;;;;;;5051949;28;20198;-66
2022/05/14 04:54:58;;;;;;;5.67;5.47;;;12.00;99.90;;;;;;5052697;28;20252;-66
2022/05/14 04:57:24;;;;;;;4.60;4.40;;;12.10;99.90;;;;;;5053161;28;20206;-68
2022/05/14 04:59:50;;;;;;;5.27;4.97;;;12.10;99.90;;;;;;5052557;28;20720;-67
2022/05/14 05:05:00;;;;;;;5.40;5.20;;;12.10;99.90;;;;;;5072649;28;20177;-66
2022/05/14 05:07:25;;;;;;;6.00;5.70;;;12.10;99.90;;;;;;5063685;28;20183;-67
2022/05/14 05:09:51;;;;;;;5.77;5.50;;;12.10;99.90;;;;;;5053123;28;20170;-67
2022/05/14 05:12:17;;;;;;;5.93;5.63;;;12.20;99.90;;;;;;5052707;28;20206;-68
2022/05/14 05:14:42;;;;;;;5.07;4.87;;;12.20;99.90;;;;;;5052457;28;20174;-67
2022/05/14 05:17:08;;;;;;;4.60;4.40;;;12.20;99.90;;;;;;5052375;28;20198;-67
2022/05/14 05:19:34;;;;;;;5.50;5.17;;;12.30;99.90;;;;;;5052699;28;20248;-67
2022/05/14 05:22:00;;;;;;;4.80;4.60;;;12.50;99.90;;;;;;5052193;28;20230;-67
2022/05/14 05:24:25;;;;;;;4.70;4.50;;;12.50;99.90;;;;;;5052747;28;20167;-67
2022/05/14 05:26:51;;;;;;;5.77;5.23;;;12.50;99.90;;;;;;5051622;28;20179;-67
2022/05/14 05:29:18;;;;;;;4.90;4.70;;;12.50;99.90;;;;;;5051209;28;20179;-67
2022/05/14 05:31:43;;;;;;;4.40;4.20;;;12.50;99.90;;;;;;5052307;28;20270;-67
2022/05/14 05:34:09;;;;;;;4.80;4.60;;;12.60;99.90;;;;;;5052327;28;20696;-68
2022/05/14 05:36:35;;;;;;;4.83;4.63;;;12.70;99.90;;;;;;5052044;28;20657;-68
2022/05/14 05:39:00;;;;;;;4.10;4.00;;;13.10;99.90;;;;;;5052201;28;20179;-67
2022/05/14 05:41:26;;;;;;;4.70;4.50;;;13.40;99.90;;;;;;5051141;28;20674;-67
2022/05/14 05:43:52;;;;;;;5.63;5.43;;;14.00;99.90;;;;;;5052152;28;20178;-68
2022/05/14 05:46:17;;;;;;;4.33;4.13;;;14.60;99.90;;;;;;5052026;28;20179;-68
2022/05/14 05:48:43;;;;;;;4.53;4.33;;;15.30;99.90;;;;;;5050965;28;20190;-67
2022/05/14 05:51:09;;;;;;;4.83;4.37;;;16.10;99.90;;;;;;5051927;28;20209;-67
2022/05/14 05:59:05;;;;;;;4.37;4.17;;;17.70;99.90;;;;;;5052199;28;20236;-67
2022/05/14 06:01:31;;;;;;;3.70;3.50;;;18.10;99.90;;;;;;5050705;28;20195;-67
2022/05/14 06:03:57;;;;;;;3.30;3.20;;;18.40;99.90;;;;;;5051971;28;20184;-68
2022/05/14 06:06:23;;;;;;;3.70;3.60;;;18.50;99.90;;;;;;5040083;28;20191;-68
2022/05/14 06:08:50;;;;;;;4.00;3.90;;;18.70;99.90;;;;;;5051627;28;20253;-67
2022/05/14 06:11:16;;;;;;;4.18;4.00;;;18.90;99.90;;;;;;5050402;28;20600;-66
2022/05/14 06:13:43;;;;;;;4.33;4.03;;;18.70;99.90;;;;;;5051407;28;20179;-65
2022/05/14 06:16:09;;;;;;;3.60;3.50;;;18.40;99.90;;;;;;5049761;28;20175;-67
2022/05/14 06:18:35;;;;;;;3.67;3.57;;;18.20;99.90;;;;;;5051653;28;20535;-67
2022/05/14 06:21:01;;;;;;;3.60;3.50;;;18.20;99.90;;;;;;5051320;28;20171;-67
2022/05/14 06:23:27;;;;;;;3.33;3.23;;;18.30;99.90;;;;;;5051632;28;20205;-67
2022/05/14 06:25:52;;;;;;;3.33;3.23;;;18.30;99.90;;;;;;5050709;28;20205;-66
2022/05/14 06:28:19;;;;;;;4.53;4.33;;;18.40;99.90;;;;;;5051615;28;20171;-67
2022/05/14 06:30:44;;;;;;;3.30;3.20;;;18.30;99.90;;;;;;5051385;28;20174;-67
2022/05/14 06:33:12;;;;;;;3.20;3.10;;;18.30;99.90;;;;;;5051094;28;20198;-66
2022/05/14 06:35:38;;;;;;;3.33;3.23;;;18.20;99.90;;;;;;5049653;28;20182;-67
2022/05/14 06:38:05;;;;;;;3.73;3.63;;;18.40;99.90;;;;;;5050090;28;20202;-67
2022/05/14 06:40:31;;;;;;;4.30;4.10;;;18.60;99.90;;;;;;5051583;28;20159;-67
2022/05/14 06:42:57;;;;;;;6.23;3.50;;;18.80;99.90;;;;;;5053409;28;20217;-66
2022/05/14 06:45:24;;;;;;;3.80;3.60;;;18.80;99.90;;;;;;5056393;28;20514;-65
2022/05/14 06:47:50;;;;;;;4.20;3.80;;;18.90;99.90;;;;;;5057634;28;20185;-66
2022/05/14 06:50:15;;;;;;;3.50;3.40;;;19.10;99.90;;;;;;5057585;28;20174;-68
2022/05/14 06:52:45;;;;;;;3.45;3.35;;;19.40;99.90;;;;;;5055414;28;20202;-66
2022/05/14 06:55:16;;;;;;;4.38;4.18;;;19.30;99.90;;;;;;5057612;28;20170;-67
2022/05/14 06:57:42;;;;;;;3.70;3.50;;;19.60;99.90;;;;;;5056177;28;20202;-68
2022/05/14 07:00:08;;;;;;;3.15;3.05;;;20.10;99.90;;;;;;5058023;28;20170;-66
2022/05/14 07:02:36;;;;;;;3.80;3.60;;;20.30;99.90;;;;;;5057511;28;20202;-66
2022/05/14 07:07:47;;;;;;;3.20;3.10;;;20.80;99.90;;;;;;5057695;28;20269;-67
2022/05/14 07:10:13;;;;;;;2.90;2.80;;;20.90;99.90;;;;;;5051778;28;20622;-66
2022/05/14 07:12:39;;;;;;;2.80;2.70;;;20.90;99.90;;;;;;5057712;28;20187;-67
2022/05/14 07:15:06;;;;;;;2.88;2.78;;;21.10;99.90;;;;;;5056981;28;20171;-67
2022/05/14 07:17:32;;;;;;;2.80;2.70;;;21.40;99.90;;;;;;5057524;28;20202;-67
2022/05/14 07:19:58;;;;;;;4.40;4.07;;;21.60;99.90;;;;;;5057367;28;20236;-67
2022/05/14 07:22:24;;;;;;;2.92;2.83;;;21.90;99.90;;;;;;5058031;28;20193;-66
2022/05/14 07:24:50;;;;;;;3.10;3.00;;;21.70;99.90;;;;;;5057039;28;20179;-67
2022/05/14 07:27:16;;;;;;;3.40;3.20;;;21.90;99.90;;;;;;5057555;28;20198;-67
2022/05/14 07:29:44;;;;;;;2.80;2.70;;;22.00;99.90;;;;;;5057731;28;20170;-68
2022/05/14 07:32:11;;;;;;;3.80;3.50;;;22.40;99.90;;;;;;5056502;28;20198;-67
2022/05/14 07:34:38;;;;;;;2.92;2.83;;;22.50;99.90;;;;;;5057037;28;20254;-67
2022/05/14 07:37:09;;;;;;;4.43;4.13;;;22.80;99.90;;;;;;5055879;28;20224;-67
2022/05/14 07:39:48;;;;;;;3.22;3.03;;;23.00;99.90;;;;;;5056254;28;20523;-68
2022/05/14 07:42:21;;;;;;;2.50;2.40;;;23.20;99.90;;;;;;5036064;28;20214;-67
2022/05/14 07:44:51;;;;;;;5.30;3.60;;;23.10;99.90;;;;;;5041675;28;20202;-67
2022/05/14 07:47:17;;;;;;;2.70;2.60;;;23.50;99.90;;;;;;5057396;28;20541;-67
2022/05/14 07:49:45;;;;;;;3.38;2.97;;;24.00;99.90;;;;;;5056270;28;20198;-67
2022/05/14 07:52:13;;;;;;;2.65;2.55;;;24.20;99.90;;;;;;5037722;28;20191;-67
2022/05/14 07:54:39;;;;;;;3.50;3.20;;;24.60;99.90;;;;;;5035839;28;20179;-67
2022/05/14 07:57:06;;;;;;;3.38;3.17;;;24.80;99.90;;;;;;5053948;28;20210;-67
2022/05/14 07:59:34;;;;;;;2.88;2.78;;;25.00;99.90;;;;;;5054274;28;20255;-67
2022/05/14 08:01:59;;;;;;;3.25;3.05;;;25.30;99.90;;;;;;5054387;28;20217;-68
2022/05/14 08:04:25;;;;;;;2.80;2.70;;;25.70;99.90;;;;;;5054039;28;20265;-67
2022/05/14 08:06:51;;;;;;;2.45;2.35;;;25.90;99.90;;;;;;5053321;28;20198;-67
2022/05/14 08:09:16;;;;;;;3.40;3.20;;;26.20;99.90;;;;;;5070308;28;20189;-67
2022/05/14 08:11:42;;;;;;;4.15;3.85;;;26.30;99.90;;;;;;5077347;28;20248;-67
2022/05/14 08:14:07;;;;;;;2.55;2.45;;;26.20;99.90;;;;;;5095049;28;20200;-67
2022/05/14 08:16:33;;;;;;;3.13;3.00;;;26.20;99.90;;;;;;5098009;28;20190;-67
2022/05/14 08:19:00;;;;;;;2.72;2.63;;;26.30;99.90;;;;;;5061287;28;20175;-68
2022/05/14 08:26:54;;;;;;;2.38;2.28;;;27.40;99.90;;;;;;5035787;28;20190;-67
2022/05/14 08:29:21;;;;;;;2.55;2.45;;;27.20;99.80;;;;;;5048286;28;21013;-67
2022/05/14 08:31:47;;;;;;;4.20;3.90;;;27.20;99.90;;;;;;5054608;28;20624;-67
2022/05/14 08:34:12;;;;;;;2.47;2.38;;;27.20;99.80;;;;;;5054288;28;20211;-67
2022/05/14 08:36:38;;;;;;;2.60;2.50;;;27.00;99.20;;;;;;5054056;28;20679;-67
2022/05/14 08:39:04;;;;;;;2.30;2.20;;;26.60;99.30;;;;;;5053631;28;20187;-67
2022/05/14 08:41:35;;;;;;;3.22;3.03;;;26.60;99.90;;;;;;5052295;28;20293;-67
2022/05/14 08:44:07;;;;;;;2.67;2.58;;;26.90;99.90;;;;;;5053859;28;20186;-68
2022/05/14 08:46:35;;;;;;;3.00;2.80;;;27.00;99.90;;;;;;5053580;28;20167;-67
2022/05/14 08:49:09;;;;;;;2.30;2.20;;;27.00;98.90;;;;;;5053116;28;20613;-67
2022/05/14 08:51:39;;;;;;;2.53;2.42;;;27.00;99.10;;;;;;5053243;28;20186;-66
2022/05/14 08:54:05;;;;;;;3.35;3.15;;;27.30;99.90;;;;;;5053071;28;20182;-66
2022/05/14 08:56:41;;;;;;;2.90;2.70;;;27.70;99.70;;;;;;5053006;28;20186;-67
2022/05/14 08:59:07;;;;;;;2.67;2.58;;;28.00;99.30;;;;;;5052749;28;20261;-67
2022/05/14 09:01:36;;;;;;;3.15;2.83;;;28.00;98.20;;;;;;5053493;28;20484;-66
2022/05/14 09:04:03;;;;;;;2.72;2.63;;;27.60;97.70;;;;;;5052483;28;20178;-67
2022/05/14 09:06:28;;;;;;;3.25;2.83;;;27.30;98.80;;;;;;5068322;28;20174;-67
2022/05/14 09:08:54;;;;;;;6.78;3.05;;;27.30;98.80;;;;;;5072890;28;20180;-67
2022/05/14 09:11:41;;;;;;;2.40;2.30;;;27.30;97.70;;;;;;5061363;28;20186;-67
2022/05/14 09:14:21;;;;;;;2.30;2.20;;;27.20;98.20;;;;;;5051946;28;20536;-67
2022/05/14 09:16:50;;;;;;;2.70;2.60;;;27.50;99.90;;;;;;5052079;28;20203;-67
2022/05/14 09:19:18;;;;;;;2.78;2.67;;;27.70;99.00;;;;;;5053014;28;20176;-66
2022/05/14 09:21:53;;;;;;;2.72;2.63;;;27.90;98.80;;;;;;5052186;28;20202;-67
2022/05/14 09:24:28;;;;;;;2.67;2.58;;;28.20;98.20;;;;;;5052819;28;20166;-66
2022/05/14 09:26:56;;;;;;;2.60;2.50;;;28.20;97.30;;;;;;5052374;28;20188;-67
2022/05/14 09:29:27;;;;;;;3.80;3.55;;;28.20;98.80;;;;;;5051204;28;20178;-66
2022/05/14 09:32:22;;;;;;;2.42;2.33;;;28.10;98.30;;;;;;5051758;28;20213;-66
2022/05/14 09:34:48;;;;;;;2.80;2.70;;;28.00;97.60;;;;;;5045114;28;20270;-66
2022/05/14 09:37:20;;;;;;;3.38;3.28;;;27.90;97.30;;;;;;5050563;28;20213;-67
2022/05/14 09:39:59;;;;;;;8.90;3.17;;;27.70;97.60;;;;;;5052420;28;20250;-66
2022/05/14 09:42:42;;;;;;;2.65;2.55;;;27.70;97.70;;;;;;5052363;28;20265;-67
2022/05/14 09:45:32;;;;;;;2.60;2.50;;;27.80;97.00;;;;;;5051936;28;20174;-66
2022/05/14 09:48:17;;;;;;;2.85;2.70;;;27.90;96.70;;;;;;5051007;28;20782;-67
2022/05/14 09:50:47;;;;;;;2.72;2.63;;;27.80;97.90;;;;;;5052239;28;20184;-66
2022/05/14 09:53:12;;;;;;;3.20;3.10;;;28.20;98.00;;;;;;5052266;28;20316;-66
2022/05/14 09:55:47;;;;;;;2.70;2.50;;;28.50;97.10;;;;;;5051948;28;20273;-67
2022/05/14 09:58:37;;;;;;;2.95;2.75;;;28.80;96.90;;;;;;5052428;28;20197;-66
2022/05/14 10:01:29;;;;;;;2.60;2.50;;;28.90;96.10;;;;;;5050929;28;20179;-66
2022/05/14 10:04:34;;;;;;;3.30;3.08;;;28.90;95.20;;;;;;5034890;28;20221;-67
2022/05/14 10:07:12;;;;;;;2.80;2.70;;;28.40;95.40;;;;;;5030531;28;20557;-67
2022/05/14 10:09:58;;;;;;;2.60;2.50;;;28.00;95.20;;;;;;5051696;28;20178;-66
2022/05/14 10:12:23;;;;;;;3.42;3.22;;;28.00;97.40;;;;;;5052088;28;20243;-67
2022/05/14 10:15:10;;;;;;;4.28;2.95;;;28.30;96.10;;;;;;5051313;28;20175;-67
2022/05/14 10:17:46;;;;;;;2.33;2.22;;;28.70;96.20;;;;;;5049704;28;20218;-67
2022/05/14 10:20:46;;;;;;;4.93;2.65;;;29.20;96.70;;;;;;5051710;28;20530;-67
2022/05/14 10:26:51;;;;;;;2.50;2.30;;;29.90;94.70;;;;;;5051780;28;20190;-67
2022/05/14 10:29:39;;;;;;;2.30;2.20;;;30.30;93.90;;;;;;5036096;28;20682;-67
2022/05/14 10:32:12;;;;;;;2.30;2.20;;;30.10;93.10;;;;;;5050116;28;20199;-67
2022/05/14 10:35:11;;;;;;;2.22;2.13;;;30.10;93.20;;;;;;5051335;28;20171;-67
2022/05/14 10:37:51;;;;;;;2.30;2.20;;;30.20;94.10;;;;;;5052439;28;20616;-67
2022/05/14 10:40:35;;;;;;;2.65;2.55;;;30.10;92.80;;;;;;5051208;28;20232;-67
2022/05/14 10:43:35;;;;;;;2.67;2.47;;;30.00;92.20;;;;;;5051795;28;20238;-67
2022/05/14 10:46:07;;;;;;;2.95;2.85;;;29.80;92.30;;;;;;5052131;28;20171;-67
2022/05/14 10:48:35;;;;;;;4.22;3.85;;;29.30;91.70;;;;;;5054295;28;20264;-68
2022/05/14 10:51:03;;;;;;;2.63;2.53;;;29.00;92.20;;;;;;5052859;28;20178;-68
2022/05/14 10:53:30;;;;;;;2.63;2.42;;;29.00;93.20;;;;;;5052458;28;20234;-67
2022/05/14 10:56:02;;;;;;;2.50;2.40;;;29.00;92.40;;;;;;5053097;28;20664;-68
2022/05/14 10:58:43;;;;;;;2.40;2.30;;;28.70;92.90;;;;;;5052249;28;20206;-68
2022/05/14 11:01:29;;;;;;;2.35;2.25;;;28.70;93.20;;;;;;5042555;28;20175;-67
2022/05/14 11:04:11;;;;;;;2.72;2.63;;;28.60;92.70;;;;;;5030921;28;20179;-67
2022/05/14 11:06:53;;;;;;;2.70;2.60;;;28.70;94.10;;;;;;5048318;28;20182;-67
2022/05/14 11:09:37;;;;;;;3.08;2.88;;;28.70;93.10;;;;;;5051152;28;20174;-67
2022/05/14 11:12:31;;;;;;;2.40;2.30;;;29.20;94.40;;;;;;5050997;28;20195;-67
2022/05/14 11:14:58;;;;;;;3.15;2.95;;;30.10;94.00;;;;;;5050400;28;20203;-67
2022/05/14 11:17:30;;;;;;;2.60;2.45;;;30.70;93.20;;;;;;5051474;28;20652;-67
2022/05/14 11:20:05;;;;;;;3.20;3.00;;;30.80;90.60;;;;;;5050848;28;20519;-67
2022/05/14 11:22:46;;;;;;;5.53;3.47;;;30.40;89.30;;;;;;5051119;28;20225;-67
2022/05/14 11:25:17;;;;;;;2.30;2.20;;;29.90;88.80;;;;;;5049886;28;20523;-67
2022/05/14 11:28:08;;;;;;;2.85;2.72;;;29.70;88.80;;;;;;5049703;28;20174;-67
2022/05/14 11:30:44;;;;;;;3.47;3.17;;;29.50;90.60;;;;;;5055058;28;20171;-67
2022/05/14 11:33:28;;;;;;;2.60;2.40;;;29.50;90.20;;;;;;5053490;28;20195;-67
2022/05/14 11:36:25;;;;;;;2.75;2.65;;;29.70;90.80;;;;;;5050681;28;20175;-67
2022/05/14 11:39:20;;;;;;;3.13;2.65;;;29.80;93.20;;;;;;5056086;28;20674;-67
2022/05/14 11:41:46;;;;;;;2.25;2.15;;;29.90;90.70;;;;;;5058424;28;20364;-67
2022/05/14 11:44:11;;;;;;;2.33;2.22;;;29.60;93.00;;;;;;5054200;28;20179;-67
2022/05/14 11:46:44;;;;;;;2.40;2.30;;;29.40;92.10;;;;;;5054172;28;20539;-67
2022/05/14 11:49:23;;;;;;;3.05;2.85;;;29.90;94.20;;;;;;5052261;28;20179;-67
2022/05/14 11:52:24;;;;;;;2.20;2.10;;;30.60;91.20;;;;;;5034666;28;20234;-67
2022/05/14 11:55:06;;;;;;;2.10;2.00;;;31.00;90.70;;;;;;5050656;28;20179;-67
2022/05/14 11:57:42;;;;;;;3.30;3.10;;;31.30;88.80;;;;;;5054053;28;20202;-67
2022/05/14 12:00:17;;;;;;;5.15;2.78;;;31.50;90.70;;;;;;5054169;28;20227;-67
2022/05/14 12:03:08;;;;;;;2.38;2.28;;;30.80;85.60;;;;;;5054148;28;20278;-68
2022/05/14 12:05:47;;;;;;;2.55;2.45;;;29.80;85.80;;;;;;5053587;28;20175;-67
2022/05/14 12:08:33;;;;;;;3.08;2.90;;;29.70;91.90;;;;;;5054164;28;20170;-68
2022/05/14 12:11:07;;;;;;;2.45;2.35;;;30.10;88.30;;;;;;5034114;28;20179;-67
2022/05/14 12:13:41;;;;;;;2.72;2.53;;;30.20;91.50;;;;;;5034647;28;20245;-67
2022/05/14 12:16:07;;;;;;;2.28;2.17;;;30.20;91.00;;;;;;5052318;28;20640;-67
2022/05/14 12:18:34;;;;;;;2.17;2.08;;;30.30;91.20;;;;;;5053818;28;20206;-66
2022/05/14 12:21:05;;;;;;;5.25;3.28;;;30.20;86.80;;;;;;5051988;28;20656;-67
2022/05/14 12:23:43;;;;;;;2.20;2.10;;;29.60;88.50;;;;;;5053690;28;20205;-67
2022/05/14 12:26:24;;;;;;;2.38;2.28;;;29.70;89.70;;;;;;5037791;28;20217;-67
2022/05/14 12:28:52;;;;;;;3.10;2.90;;;29.70;87.90;;;;;;5053333;28;20171;-67
2022/05/14 12:34:09;;;;;;;3.33;3.13;;;29.10;88.70;;;;;;5053481;28;20178;-67
2022/05/14 12:36:53;;;;;;;2.78;2.65;;;28.90;86.10;;;;;;5053065;28;20195;-68
2022/05/14 12:39:27;;;;;;;3.75;3.40;;;28.20;88.10;;;;;;5053356;28;20225;-68
2022/05/14 12:41:58;;;;;;;2.85;2.75;;;28.30;90.80;;;;;;5052646;28;20210;-68
2022/05/14 12:44:28;;;;;;;3.00;2.90;;;28.90;90.30;;;;;;5060762;28;20171;-68
2022/05/14 12:46:56;;;;;;;4.88;2.83;;;29.20;88.90;;;;;;5076631;28;20178;-70
2022/05/14 12:49:24;;;;;;;9.18;2.80;;;28.80;85.50;;;;;;5077416;28;20159;-68
2022/05/14 12:52:09;;;;;;;2.80;2.50;;;28.40;88.70;;;;;;5077694;28;20194;-68
2022/05/14 12:54:40;;;;;;;2.85;2.75;;;28.70;90.30;;;;;;5043650;28;20176;-67
2022/05/14 12:57:10;;;;;;;2.40;2.30;;;28.60;87.30;;;;;;5043100;28;20247;-67
2022/05/14 12:59:36;;;;;;;2.65;2.55;;;28.60;86.60;;;;;;5053210;28;20235;-67
2022/05/14 13:02:06;;;;;;;2.65;2.55;;;28.30;88.20;;;;;;5054365;28;20195;-67
2022/05/14 13:04:44;;;;;;;3.00;2.90;;;28.20;90.10;;;;;;5054222;28;20210;-67
2022/05/14 13:07:11;;;;;;;2.67;2.58;;;28.30;91.10;;;;;;5049814;28;20232;-66
2022/05/14 13:09:39;;;;;;;2.30;2.20;;;28.40;89.10;;;;;;5071538;28;20248;-66
2022/05/14 13:12:06;;;;;;;3.10;2.90;;;28.30;90.00;;;;;;5068496;28;20226;-66
2022/05/14 13:14:35;;;;;;;2.92;2.83;;;28.20;90.90;;;;;;5053965;28;20442;-66
2022/05/14 13:17:07;;;;;;;2.50;2.40;;;28.60;87.50;;;;;;5053890;28;20198;-66
2022/05/14 13:19:38;;;;;;;3.28;3.08;;;28.80;91.70;;;;;;5053783;28;20175;-67
2022/05/14 13:22:10;;;;;;;2.88;2.67;;;29.30;90.30;;;;;;5051902;28;20194;-66
2022/05/14 13:24:37;;;;;;;5.20;3.10;;;29.10;86.30;;;;;;5059409;28;20178;-67
2022/05/14 13:27:11;;;;;;;10.93;2.90;;;28.90;90.00;;;;;;5071202;28;20268;-67
2022/05/14 13:29:40;;;;;;;2.65;2.50;;;28.40;89.10;;;;;;5072787;28;20170;-67